createdAt,value
2022-12-25T00:01:39.036Z,6.97
2022-12-25T00:04:05.557Z,7.01
2022-12-25T00:06:32.108Z,7.05
2022-12-25T00:08:58.636Z,7.08
2022-12-25T00:11:25.114Z,7.11
2022-12-25T00:13:51.578Z,7.15
2022-12-25T00:16:25.178Z,7.19
2022-12-25T00:18:52.765Z,7.23
2022-12-25T00:21:20.571Z,7.26
2022-12-25T00:23:47.672Z,7.29
2022-12-25T00:26:16.569Z,7.32
2022-12-25T00:28:43.076Z,7.34
2022-12-25T00:31:15.192Z,7.38
2022-12-25T00:33:43.795Z,7.42
2022-12-25T00:36:11.408Z,7.45
2022-12-25T00:38:39.388Z,7.50
2022-12-25T00:41:07.951Z,7.53
2022-12-25T00:43:34.477Z,7.56
2022-12-25T00:46:03.330Z,7.58
2022-12-25T00:48:30.548Z,7.62
2022-12-25T00:50:59.138Z,7.65
2022-12-25T00:53:26.610Z,7.67
2022-12-25T00:56:02.032Z,7.70
2022-12-25T00:58:31.206Z,7.73
2022-12-25T01:00:58.107Z,7.74
2022-12-25T01:03:25.610Z,7.73
2022-12-25T01:06:01.464Z,7.76
2022-12-25T01:08:30.874Z,7.77
2022-12-25T01:11:00.698Z,7.79
2022-12-25T01:13:28.505Z,7.80
2022-12-25T01:15:55.172Z,7.80
2022-12-25T01:18:23.780Z,7.80
2022-12-25T01:20:50.400Z,7.81
2022-12-25T01:23:17.022Z,7.82
2022-12-25T01:25:43.517Z,7.82
2022-12-25T01:28:09.913Z,7.81
2022-12-25T01:30:36.352Z,7.81
2022-12-25T01:33:02.864Z,7.83
2022-12-25T01:35:29.462Z,7.82
2022-12-25T01:37:55.915Z,7.84
2022-12-25T01:40:22.329Z,7.82
2022-12-25T01:42:48.781Z,7.83
2022-12-25T01:45:34.717Z,7.83
2022-12-25T01:48:05.965Z,7.83
2022-12-25T01:50:34.015Z,7.84
2022-12-25T01:53:00.795Z,7.80
2022-12-25T01:55:27.892Z,7.79
2022-12-25T01:57:54.632Z,7.76
2022-12-25T02:00:21.126Z,7.74
2022-12-25T02:02:48.504Z,7.71
2022-12-25T02:05:27.205Z,7.68
2022-12-25T02:07:54.291Z,7.64
2022-12-25T02:10:20.811Z,7.60
2022-12-25T02:12:48.065Z,7.60
2022-12-25T02:15:17.978Z,7.57
2022-12-25T02:17:57.297Z,7.54
2022-12-25T02:20:48.226Z,7.50
2022-12-25T02:24:00.784Z,7.47
2022-12-25T02:26:30.060Z,7.44
2022-12-25T02:29:45.662Z,7.41
2022-12-25T02:32:31.176Z,7.37
2022-12-25T02:35:09.711Z,7.38
2022-12-25T02:37:48.568Z,7.38
2022-12-25T02:40:24.972Z,7.36
2022-12-25T02:43:17.236Z,7.35
2022-12-25T02:46:18.572Z,7.35
2022-12-25T02:49:11.878Z,7.35
2022-12-25T02:52:02.309Z,7.33
2022-12-25T02:54:53.278Z,7.31
2022-12-25T02:57:43.700Z,7.31
2022-12-25T03:00:29.995Z,7.31
2022-12-25T03:03:17.524Z,7.32
2022-12-25T03:06:03.729Z,7.33
2022-12-25T03:08:34.736Z,7.38
2022-12-25T03:11:22.633Z,7.41
2022-12-25T03:13:55.412Z,7.43
2022-12-25T03:16:40.933Z,7.44
2022-12-25T03:19:26.982Z,7.44
2022-12-25T03:22:14.498Z,7.45
2022-12-25T03:24:59.926Z,7.50
2022-12-25T03:27:29.556Z,7.54
2022-12-25T03:30:19.110Z,7.59
2022-12-25T03:33:23.209Z,7.66
2022-12-25T03:36:20.617Z,7.70
2022-12-25T03:39:28.620Z,7.77
2022-12-25T03:42:18.217Z,7.81
2022-12-25T03:45:35.580Z,7.82
2022-12-25T03:48:23.957Z,7.82
2022-12-25T03:51:18.941Z,7.84
2022-12-25T03:54:12.831Z,7.85
2022-12-25T03:57:00.137Z,7.87
2022-12-25T03:59:45.232Z,7.87
2022-12-25T04:02:30.132Z,7.89
2022-12-25T04:05:15.472Z,7.91
2022-12-25T04:08:00.882Z,7.90
2022-12-25T04:10:45.759Z,7.86
2022-12-25T04:13:30.714Z,7.83
2022-12-25T04:16:15.567Z,7.76
2022-12-25T04:19:00.791Z,7.71
2022-12-25T04:21:45.908Z,7.68
2022-12-25T04:24:31.289Z,7.62
2022-12-25T04:27:16.000Z,7.61
2022-12-25T04:30:00.926Z,7.58
2022-12-25T04:32:45.769Z,7.59
2022-12-25T04:35:30.521Z,7.58
2022-12-25T04:37:57.221Z,7.58
2022-12-25T04:40:23.784Z,7.56
2022-12-25T04:42:51.645Z,7.57
2022-12-25T04:45:18.160Z,7.58
2022-12-25T04:47:44.600Z,7.58
2022-12-25T04:50:11.127Z,7.56
2022-12-25T04:52:39.457Z,7.56
2022-12-25T04:55:07.174Z,7.55
2022-12-25T04:57:33.961Z,7.55
2022-12-25T05:00:00.556Z,7.58
2022-12-25T05:02:27.173Z,7.55
2022-12-25T05:04:53.636Z,7.54
2022-12-25T05:07:20.061Z,7.56
2022-12-25T05:09:46.433Z,7.57
2022-12-25T05:12:13.495Z,7.55
2022-12-25T05:14:40.072Z,7.55
2022-12-25T05:17:07.883Z,7.51
2022-12-25T05:19:34.669Z,7.53
2022-12-25T05:22:01.087Z,7.55
2022-12-25T05:24:28.193Z,7.51
2022-12-25T05:26:54.810Z,7.48
2022-12-25T05:29:21.272Z,7.46
2022-12-25T05:31:47.771Z,7.44
2022-12-25T05:34:14.225Z,7.44
2022-12-25T05:36:40.652Z,7.43
2022-12-25T05:39:07.043Z,7.41
2022-12-25T05:41:34.660Z,7.41
2022-12-25T05:44:01.671Z,7.40
2022-12-25T05:46:28.252Z,7.37
2022-12-25T05:48:54.653Z,7.35
2022-12-25T05:51:21.090Z,7.34
2022-12-25T05:53:47.642Z,7.32
2022-12-25T05:56:14.142Z,7.33
2022-12-25T05:58:40.859Z,7.32
2022-12-25T06:01:20.334Z,7.32
2022-12-25T06:03:46.951Z,7.35
2022-12-25T06:06:14.107Z,7.38
2022-12-25T06:08:40.829Z,7.40
2022-12-25T06:11:08.793Z,7.45
2022-12-25T06:13:36.093Z,7.47
2022-12-25T06:16:07.665Z,7.50
2022-12-25T06:18:38.867Z,7.51
2022-12-25T06:21:13.682Z,7.51
2022-12-25T06:23:40.756Z,7.52
2022-12-25T06:26:12.904Z,7.51
2022-12-25T06:28:39.477Z,7.54
2022-12-25T06:31:11.774Z,7.54
2022-12-25T06:33:38.443Z,7.56
2022-12-25T06:36:25.133Z,7.62
2022-12-25T06:38:52.548Z,7.64
2022-12-25T06:41:24.539Z,7.69
2022-12-25T06:43:53.799Z,7.70
2022-12-25T06:46:22.264Z,7.70
2022-12-25T06:48:49.607Z,7.69
2022-12-25T06:51:17.683Z,7.68
2022-12-25T06:53:44.157Z,7.68
2022-12-25T06:56:15.565Z,7.68
2022-12-25T06:58:46.452Z,7.67
2022-12-25T07:01:20.215Z,7.64
2022-12-25T07:03:50.028Z,7.64
2022-12-25T07:06:16.441Z,7.64
2022-12-25T07:08:43.067Z,7.65
2022-12-25T07:11:09.549Z,7.63
2022-12-25T07:13:35.925Z,7.64
2022-12-25T07:16:03.950Z,7.64
2022-12-25T07:18:31.365Z,7.67
2022-12-25T07:20:59.666Z,7.68
2022-12-25T07:23:26.831Z,7.71
2022-12-25T07:25:58.258Z,7.72
2022-12-25T07:28:25.520Z,7.74
2022-12-25T07:30:52.021Z,7.76
2022-12-25T07:33:18.617Z,7.82
2022-12-25T07:35:45.236Z,7.81
2022-12-25T07:38:11.686Z,7.83
2022-12-25T07:40:38.565Z,7.86
2022-12-25T07:43:05.226Z,7.88
2022-12-25T07:45:31.755Z,7.90
2022-12-25T07:48:04.332Z,7.90
2022-12-25T07:50:31.515Z,7.91
2022-12-25T07:52:57.921Z,7.91
2022-12-25T07:55:24.362Z,7.90
2022-12-25T07:57:50.842Z,7.90
2022-12-25T08:00:17.810Z,7.90
2022-12-25T08:02:44.500Z,7.90
2022-12-25T08:05:11.207Z,7.90
2022-12-25T08:07:37.658Z,7.91
2022-12-25T08:10:04.462Z,7.91
2022-12-25T08:12:30.893Z,7.92
2022-12-25T08:14:57.350Z,7.92
2022-12-25T08:17:23.724Z,7.92
2022-12-25T08:19:50.156Z,7.93
2022-12-25T08:22:16.646Z,7.93
2022-12-25T08:24:43.093Z,7.92
2022-12-25T08:27:09.572Z,7.94
2022-12-25T08:29:35.966Z,7.93
2022-12-25T08:32:02.488Z,7.93
2022-12-25T08:34:28.922Z,7.92
2022-12-25T08:36:55.372Z,7.90
2022-12-25T08:39:21.741Z,7.89
2022-12-25T08:41:48.117Z,7.89
2022-12-25T08:44:14.600Z,7.90
2022-12-25T08:46:41.025Z,7.91
2022-12-25T08:49:07.965Z,7.91
2022-12-25T08:51:34.492Z,7.91
2022-12-25T08:54:01.055Z,7.90
2022-12-25T08:56:28.024Z,7.91
2022-12-25T08:58:54.520Z,7.90
2022-12-25T09:01:22.325Z,7.90
2022-12-25T09:03:48.888Z,7.91
2022-12-25T09:06:16.692Z,7.88
2022-12-25T09:08:49.167Z,7.90
2022-12-25T09:11:17.869Z,7.90
2022-12-25T09:13:44.530Z,7.92
2022-12-25T09:16:14.605Z,7.92
2022-12-25T09:18:41.133Z,7.94
2022-12-25T09:21:10.952Z,7.97
2022-12-25T09:23:37.394Z,8.00
2022-12-25T09:26:06.253Z,8.02
2022-12-25T09:28:33.346Z,8.05
2022-12-25T09:30:59.930Z,8.07
2022-12-25T09:33:26.713Z,8.10
2022-12-25T09:35:58.496Z,8.13
2022-12-25T09:38:25.505Z,8.15
2022-12-25T09:41:33.353Z,8.18
2022-12-25T09:44:05.556Z,8.20
2022-12-25T09:46:42.179Z,8.23
2022-12-25T09:49:21.738Z,8.25
2022-12-25T09:51:55.687Z,8.29
2022-12-25T09:54:27.489Z,8.30
2022-12-25T09:56:53.886Z,8.33
2022-12-25T09:59:25.847Z,8.35
2022-12-25T10:02:00.696Z,8.36
2022-12-25T10:04:57.471Z,8.38
2022-12-25T10:07:59.513Z,8.40
2022-12-25T10:10:39.316Z,8.39
2022-12-25T10:13:36.984Z,8.40
2022-12-25T10:16:15.603Z,8.39
2022-12-25T10:18:57.021Z,8.38
2022-12-25T10:21:23.916Z,8.39
2022-12-25T10:24:05.446Z,8.38
2022-12-25T10:26:33.421Z,8.35
2022-12-25T10:29:11.844Z,8.37
2022-12-25T10:31:38.272Z,8.36
2022-12-25T10:34:07.082Z,8.36
2022-12-25T10:36:34.205Z,8.37
2022-12-25T10:39:00.679Z,8.37
2022-12-25T10:41:49.882Z,8.36
2022-12-25T10:44:24.375Z,8.36
2022-12-25T10:46:53.583Z,8.37
2022-12-25T10:49:22.793Z,8.35
2022-12-25T10:51:49.859Z,8.35
2022-12-25T10:54:33.352Z,8.34
2022-12-25T10:57:08.826Z,8.32
2022-12-25T11:00:00.314Z,8.27
2022-12-25T11:02:29.457Z,8.23
2022-12-25T11:05:06.194Z,8.21
2022-12-25T11:07:46.542Z,8.19
2022-12-25T11:10:30.899Z,8.19
2022-12-25T11:12:59.139Z,8.20
2022-12-25T11:15:34.275Z,8.19
2022-12-25T11:18:01.113Z,8.20
2022-12-25T11:20:27.619Z,8.22
2022-12-25T11:22:54.103Z,8.22
2022-12-25T11:25:26.160Z,8.22
2022-12-25T11:28:05.679Z,8.22
2022-12-25T11:30:33.674Z,8.22
2022-12-25T11:33:06.679Z,8.25
2022-12-25T11:35:45.791Z,8.26
2022-12-25T11:38:12.161Z,8.27
2022-12-25T11:40:46.879Z,8.28
2022-12-25T11:43:21.712Z,8.33
2022-12-25T11:46:00.116Z,8.36
2022-12-25T11:48:36.659Z,8.41
2022-12-25T11:51:06.180Z,8.47
2022-12-25T11:53:44.489Z,8.49
2022-12-25T11:56:17.241Z,8.45
2022-12-25T11:58:54.092Z,8.38
2022-12-25T12:01:48.838Z,8.35
2022-12-25T12:04:29.403Z,8.38
2022-12-25T12:07:08.794Z,8.38
2022-12-25T12:09:56.499Z,8.37
2022-12-25T12:12:32.112Z,8.38
2022-12-25T12:15:16.791Z,8.38
2022-12-25T12:17:43.212Z,8.40
2022-12-25T12:20:27.593Z,8.44
2022-12-25T12:22:54.335Z,8.43
2022-12-25T12:25:21.837Z,8.42
2022-12-25T12:28:04.448Z,8.42
2022-12-25T12:30:34.696Z,8.40
2022-12-25T12:33:05.587Z,8.40
2022-12-25T12:35:35.053Z,8.42
2022-12-25T12:38:10.386Z,8.42
2022-12-25T12:40:51.676Z,8.42
2022-12-25T12:43:37.683Z,8.40
2022-12-25T12:46:08.363Z,8.39
2022-12-25T12:48:41.525Z,8.37
2022-12-25T12:51:11.531Z,8.35
2022-12-25T12:53:40.633Z,8.35
2022-12-25T12:56:16.961Z,8.36
2022-12-25T12:58:52.142Z,8.34
2022-12-25T13:01:27.887Z,8.36
2022-12-25T13:04:03.653Z,8.35
2022-12-25T13:06:40.255Z,8.34
2022-12-25T13:09:19.692Z,8.36
2022-12-25T13:11:46.990Z,8.36
2022-12-25T13:14:19.671Z,8.37
2022-12-25T13:16:51.473Z,8.35
2022-12-25T13:19:23.935Z,8.35
2022-12-25T13:21:55.863Z,8.34
2022-12-25T13:24:25.194Z,8.31
2022-12-25T13:26:51.718Z,8.31
2022-12-25T13:29:35.476Z,8.27
2022-12-25T13:32:05.198Z,8.29
2022-12-25T13:34:36.057Z,8.28
2022-12-25T13:37:17.826Z,8.27
2022-12-25T13:40:06.387Z,8.26
2022-12-25T13:42:41.941Z,8.24
2022-12-25T13:45:14.412Z,8.24
2022-12-25T13:47:54.869Z,8.24
2022-12-25T13:50:26.483Z,8.23
2022-12-25T13:52:54.220Z,8.21
2022-12-25T13:55:23.750Z,8.23
2022-12-25T13:57:58.972Z,8.23
2022-12-25T14:00:33.329Z,8.25
2022-12-25T14:03:00.241Z,8.27
2022-12-25T14:05:42.392Z,8.26
2022-12-25T14:08:21.735Z,8.26
2022-12-25T14:10:50.961Z,8.27
2022-12-25T14:13:19.756Z,8.28
2022-12-25T14:15:47.940Z,8.27
2022-12-25T14:18:16.705Z,8.29
2022-12-25T14:21:01.154Z,8.30
2022-12-25T14:23:39.203Z,8.30
2022-12-25T14:26:05.806Z,8.28
2022-12-25T14:28:34.145Z,8.30
2022-12-25T14:31:02.316Z,8.28
2022-12-25T14:33:35.184Z,8.30
2022-12-25T14:36:01.861Z,8.30
2022-12-25T14:38:34.756Z,8.31
2022-12-25T14:41:04.277Z,8.32
2022-12-25T14:43:32.275Z,8.32
2022-12-25T14:46:01.393Z,8.32
2022-12-25T14:48:32.546Z,8.31
2022-12-25T14:51:02.440Z,8.30
2022-12-25T14:53:34.754Z,8.31
2022-12-25T14:56:01.611Z,8.30
2022-12-25T14:58:31.159Z,8.29
2022-12-25T15:01:00.233Z,8.26
2022-12-25T15:03:31.114Z,8.26
2022-12-25T15:06:20.592Z,8.25
2022-12-25T15:09:01.832Z,8.27
2022-12-25T15:11:28.780Z,8.26
2022-12-25T15:13:55.687Z,8.26
2022-12-25T15:16:25.342Z,8.26
2022-12-25T15:18:53.646Z,8.26
2022-12-25T15:21:27.532Z,8.24
2022-12-25T15:23:55.153Z,8.22
2022-12-25T15:26:21.740Z,8.23
2022-12-25T15:28:48.265Z,8.23
2022-12-25T15:31:21.841Z,8.25
2022-12-25T15:33:49.235Z,8.27
2022-12-25T15:36:15.713Z,8.28
2022-12-25T15:38:42.501Z,8.27
2022-12-25T15:41:54.958Z,8.28
2022-12-25T15:44:22.343Z,8.27
2022-12-25T15:46:49.020Z,8.27
2022-12-25T15:49:16.360Z,8.28
2022-12-25T15:51:43.766Z,8.27
2022-12-25T15:54:10.561Z,8.25
2022-12-25T15:56:50.064Z,8.25
2022-12-25T15:59:17.864Z,8.24
2022-12-25T16:01:50.292Z,8.27
2022-12-25T16:04:17.481Z,8.26
2022-12-25T16:06:43.915Z,8.26
2022-12-25T16:09:14.892Z,8.22
2022-12-25T16:11:42.273Z,8.15
2022-12-25T16:14:09.620Z,8.11
2022-12-25T16:16:36.113Z,8.14
2022-12-25T16:19:02.759Z,8.15
2022-12-25T16:21:37.794Z,8.16
2022-12-25T16:24:04.565Z,8.15
2022-12-25T16:26:33.161Z,8.15
2022-12-25T16:29:06.556Z,8.17
2022-12-25T16:31:34.108Z,8.19
2022-12-25T16:34:01.253Z,8.19
2022-12-25T16:36:27.674Z,8.20
2022-12-25T16:38:54.258Z,8.20
2022-12-25T16:41:21.690Z,8.15
2022-12-25T16:43:48.305Z,8.15
2022-12-25T16:46:17.703Z,8.19
2022-12-25T16:48:44.989Z,8.21
2022-12-25T16:51:17.274Z,8.21
2022-12-25T16:53:44.443Z,8.12
2022-12-25T16:56:14.655Z,8.14
2022-12-25T16:58:42.183Z,8.13
